Archiv-/Tagesdaten

--Timestamp---	Temp	Chill	HIndex	Humid	Dewpt	Wind	HiWind	WindDir	Rain	Barom	        Solar	ET	UV
--------------	----	-----	------	-----	-----	----	------	-------	----	-----	        -----	--	--
20081224 00:05	3.7	3.7	3.7	83	1.1	2	5	270	0.00	1034.985	0	0.000	0
20081224 00:10	3.7	3.7	3.7	83	1.1	2	5	270	0.00	1034.917	0	0.000	0
20081224 00:15	3.7	3.7	3.7	83	1.1	2	3	270	0.00	1034.849	0	0.000	0
20081224 00:20	3.7	3.7	3.7	83	1.1	2	3	270	0.00	1034.782	0	0.000	0
20081224 00:25	3.7	3.7	3.7	83	1.1	0	3	270	0.00	1034.748	0	0.000	0
20081224 00:30	3.7	3.7	3.7	83	1.1	0	2	270	0.00	1034.782	0	0.000	0
20081224 00:35	3.7	3.7	3.7	83	1.1	2	3	270	0.00	1034.748	0	0.000	0
20081224 00:40	3.6	3.6	3.6	84	1.2	2	5	270	0.00	1034.714	0	0.000	0
20081224 00:45	3.6	3.6	3.6	84	1.2	2	5	270	0.00	1034.748	0	0.000	0
20081224 00:50	3.6	3.6	3.6	84	1.1	2	5	270	0.00	1034.951	0	0.000	0
20081224 00:55	3.6	3.6	3.6	85	1.3	2	5	270	0.00	1034.883	0	0.000	0
20081224 01:00	3.5	3.5	3.5	85	1.2	2	5	270	0.00	1034.782	0	0.000	0
20081224 01:05	3.4	3.4	3.4	85	1.2	2	5	270	0.00	1034.714	0	0.000	0
20081224 01:10	3.4	3.4	3.4	85	1.2	2	5	270	0.00	1034.782	0	0.000	0
20081224 01:15	3.4	3.4	3.4	85	1.2	3	8	225	0.00	1034.680	0	0.000	0
20081224 01:20	3.5	3.5	3.5	85	1.2	3	10	225	0.00	1034.646	0	0.000	0
20081224 01:25	3.5	3.5	3.5	85	1.2	3	8	247	0.00	1034.545	0	0.000	0
20081224 01:30	3.5	3.5	3.5	85	1.2	0	5	247	0.00	1034.612	0	0.000	0
20081224 01:35	3.6	3.6	3.6	85	1.3	0	3	247	0.00	1034.578	0	0.000	0
20081224 01:40	3.6	3.6	3.6	85	1.3	0	2	247	0.00	1034.578	0	0.000	0
20081224 01:45	3.6	3.6	3.6	85	1.3	2	5	247	0.00	1034.578	0	0.000	0
20081224 01:50	3.6	3.6	3.6	85	1.3	0	3	247	0.00	1034.612	0	0.000	0
20081224 01:55	3.6	3.6	3.6	86	1.4	2	3	247	0.00	1034.612	0	0.000	0
20081224 02:00	3.6	3.6	3.6	86	1.4	2	5	247	0.00	1034.612	0	0.000	0
20081224 02:05	3.6	3.6	3.6	86	1.4	2	5	247	0.00	1034.545	0	0.000	0
20081224 02:10	3.5	3.5	3.5	86	1.4	2	5	247	0.00	1034.409	0	0.000	0
20081224 02:15	3.6	3.6	3.6	86	1.4	2	5	247	0.00	1034.443	0	0.000	0
20081224 02:20	3.5	3.5	3.5	86	1.4	3	5	247	0.00	1034.477	0	0.000	0
20081224 02:25	3.6	3.6	3.6	86	1.4	2	5	247	0.00	1034.578	0	0.000	0
20081224 02:30	3.6	3.6	3.6	86	1.4	3	6	247	0.00	1034.477	0	0.000	0
20081224 02:35	3.6	3.6	3.6	86	1.5	2	5	247	0.00	1034.511	0	0.000	0
20081224 02:40	3.6	3.6	3.6	86	1.5	3	5	247	0.00	1034.545	0	0.000	0
20081224 02:45	3.6	3.6	3.6	86	1.4	3	5	247	0.00	1034.511	0	0.000	0
20081224 02:50	3.5	3.5	3.5	87	1.5	3	6	247	0.00	1034.578	0	0.000	0
20081224 02:55	3.4	3.4	3.4	87	1.5	2	5	247	0.00	1034.409	0	0.000	0
20081224 03:00	3.4	3.4	3.4	87	1.5	0	2	247	0.00	1034.375	0	0.000	0
20081224 03:05	3.4	3.4	3.4	87	1.4	0	2	247	0.00	1034.443	0	0.000	0
20081224 03:10	3.4	3.4	3.4	87	1.4	0	3	247	0.00	1034.545	0	0.000	0
20081224 03:15	3.4	3.4	3.4	87	1.4	0	2	247	0.00	1034.511	0	0.000	0
20081224 03:20	3.4	3.4	3.4	87	1.5	0	3	247	0.00	1034.477	0	0.000	0
20081224 03:25	3.4	3.4	3.4	87	1.5	0	3	247	0.00	1034.409	0	0.000	0
20081224 03:30	3.5	3.5	3.5	87	1.5	2	5	247	0.00	1034.308	0	0.000	0
20081224 03:35	3.4	3.4	3.4	87	1.5	3	5	247	0.00	1034.274	0	0.000	0
20081224 03:40	3.4	3.4	3.4	87	1.5	2	5	247	0.00	1034.172	0	0.000	0
20081224 03:45	3.4	3.4	3.4	88	1.6	2	6	247	0.00	1034.138	0	0.000	0
20081224 03:50	3.3	3.3	3.3	88	1.5	3	6	247	0.00	1034.071	0	0.000	0
20081224 03:55	3.2	3.2	3.2	88	1.4	2	5	247	0.00	1033.867	0	0.000	0
20081224 04:00	3.2	3.2	3.2	89	1.5	0	3	247	0.00	1033.867	0	0.000	0
20081224 04:05	3.2	3.2	3.2	89	1.5	0	3	247	0.00	1033.969	0	0.000	0
20081224 04:10	3.2	3.2	3.2	89	1.6	0	2	247	0.00	1034.003	0	0.000	0
20081224 04:15	3.2	3.2	3.2	89	1.6	0	0	247	0.00	1034.003	0	0.000	0
20081224 04:20	3.3	3.3	3.3	89	1.6	0	2	247	0.00	1033.969	0	0.000	0
20081224 04:25	3.3	3.3	3.3	88	1.5	0	2	247	0.00	1034.003	0	0.000	0
20081224 04:30	3.4	3.4	3.4	88	1.6	0	2	247	0.00	1033.867	0	0.000	0
20081224 04:35	3.4	3.4	3.4	88	1.6	0	3	247	0.00	1033.867	0	0.000	0
20081224 04:40	3.5	3.5	3.5	88	1.7	0	2	247	0.00	1033.969	0	0.000	0
20081224 04:45	3.6	3.6	3.6	88	1.8	0	2	247	0.00	1033.935	0	0.000	0
20081224 04:50	3.4	3.4	3.4	88	1.6	0	2	247	0.00	1033.833	0	0.000	0
20081224 04:55	3.4	3.4	3.4	88	1.6	0	3	247	0.00	1033.901	0	0.000	0
20081224 05:00	3.3	3.3	3.3	88	1.5	0	3	247	0.00	1033.698	0	0.000	0
20081224 05:05	3.3	3.3	3.3	88	1.5	0	3	247	0.00	1033.596	0	0.000	0
20081224 05:10	3.3	3.3	3.3	88	1.5	0	2	247	0.00	1033.630	0	0.000	0
20081224 05:15	3.3	3.3	3.3	89	1.7	0	0	247	0.00	1033.596	0	0.000	0
20081224 05:20	3.3	3.3	3.3	89	1.7	0	3	247	0.00	1033.596	0	0.000	0
20081224 05:25	3.3	3.3	3.3	89	1.7	0	3	247	0.00	1033.529	0	0.000	0
20081224 05:30	3.3	3.3	3.3	89	1.6	2	5	247	0.00	1033.393	0	0.000	0
20081224 05:35	3.3	3.3	3.3	89	1.6	0	3	247	0.00	1033.427	0	0.000	0
20081224 05:40	3.3	3.3	3.3	89	1.6	0	3	247	0.00	1033.326	0	0.000	0
20081224 05:45	3.3	3.3	3.3	89	1.6	2	5	247	0.00	1033.156	0	0.000	0
20081224 05:50	3.2	3.2	3.2	89	1.6	0	3	247	0.00	1033.089	0	0.000	0
20081224 05:55	3.2	3.2	3.2	89	1.6	2	5	247	0.00	1032.953	0	0.000	0
20081224 06:00	3.2	3.2	3.2	89	1.6	0	3	247	0.00	1032.987	0	0.000	0
20081224 06:05	3.2	3.2	3.2	89	1.6	0	2	247	0.00	1032.987	0	0.000	0
20081224 06:10	3.2	3.2	3.2	89	1.6	0	3	247	0.00	1032.919	0	0.000	0
20081224 06:15	3.2	3.2	3.2	89	1.6	0	2	247	0.00	1032.851	0	0.000	0
20081224 06:20	3.2	3.2	3.2	89	1.5	0	2	247	0.00	1032.818	0	0.000	0
20081224 06:25	3.2	3.2	3.2	89	1.5	0	3	247	0.00	1032.784	0	0.000	0
20081224 06:30	3.2	3.2	3.2	89	1.5	0	3	247	0.00	1032.648	0	0.000	0
20081224 06:35	3.2	3.2	3.2	90	1.7	0	0	247	0.00	1032.682	0	0.000	0
20081224 06:40	3.2	3.2	3.2	89	1.5	0	3	247	0.00	1032.547	0	0.000	0
20081224 06:45	3.1	3.1	3.1	89	1.5	0	3	247	0.00	1032.547	0	0.000	0
20081224 06:50	3.1	3.1	3.1	89	1.5	0	2	247	0.00	1032.547	0	0.000	0
20081224 06:55	3.1	3.1	3.1	89	1.5	0	2	247	0.00	1032.547	0	0.000	0
20081224 07:00	3.2	3.2	3.2	89	1.6	0	0	247	0.00	1032.581	0	0.000	0
20081224 07:05	3.3	3.3	3.3	89	1.7	0	0	247	0.00	1032.614	0	0.000	0
20081224 07:10	3.3	3.3	3.3	88	1.5	0	0	247	0.00	1032.581	0	0.000	0
20081224 07:15	3.3	3.3	3.3	88	1.5	0	0	247	0.00	1032.445	0	0.000	0
20081224 07:20	3.2	3.2	3.2	88	1.4	0	2	247	0.00	1032.411	0	0.000	0
20081224 07:25	3.2	3.2	3.2	88	1.4	0	3	247	0.00	1032.310	0	0.000	0
20081224 07:30	3.1	3.1	3.1	88	1.3	2	3	247	0.00	1032.310	0	0.000	0
20081224 07:35	3.1	3.1	3.1	89	1.4	0	3	247	0.00	1032.547	0	0.000	0
20081224 07:40	3.1	3.1	3.1	89	1.5	0	0	247	0.00	1032.581	0	0.000	0
20081224 07:45	3.2	3.2	3.2	89	1.6	0	0	247	0.00	1032.682	0	0.000	0
20081224 07:50	3.3	3.3	3.3	89	1.6	0	0	247	0.00	1032.750	0	0.000	0
20081224 07:55	3.3	3.3	3.3	88	1.5	0	3	247	0.00	1032.818	0	0.000	0
20081224 08:00	3.3	3.3	3.3	88	1.5	0	3	247	0.00	1032.784	0	0.000	0
20081224 08:05	3.3	3.3	3.3	88	1.5	0	2	247	0.00	1032.885	0	0.000	0
20081224 08:10	3.4	3.4	3.4	88	1.6	2	5	247	0.00	1033.021	0	0.000	0
20081224 08:15	3.4	3.4	3.4	88	1.6	0	3	247	0.00	1033.089	5	0.000	0
20081224 08:20	3.4	3.4	3.4	88	1.6	2	5	247	0.00	1033.122	10	0.000	0
20081224 08:25	3.4	3.4	3.4	88	1.6	2	5	247	0.00	1033.122	12	0.000	0
20081224 08:30	3.4	3.4	3.4	88	1.6	2	5	247	0.00	1033.055	16	0.000	0
20081224 08:35	3.4	3.4	3.4	88	1.6	3	5	247	0.00	1033.122	19	0.000	0
20081224 08:40	3.4	3.4	3.4	87	1.5	2	5	247	0.00	1032.919	21	0.000	0
20081224 08:45	3.4	3.4	3.4	87	1.4	0	5	247	0.00	1032.818	25	0.000	0
20081224 08:50	3.3	3.3	3.3	87	1.4	0	3	247	0.00	1032.818	30	0.000	0
20081224 08:55	3.3	3.3	3.3	88	1.5	0	3	247	0.00	1032.818	32	0.000	0
20081224 09:00	3.3	3.3	3.3	88	1.5	2	3	247	0.00	1032.784	32	0.000	0
20081224 09:05	3.3	3.3	3.3	88	1.5	0	3	247	0.00	1032.784	31	0.000	0
20081224 09:10	3.2	3.2	3.2	88	1.4	2	5	247	0.00	1032.784	31	0.000	0
20081224 09:15	3.1	3.1	3.1	88	1.3	2	3	247	0.00	1032.682	28	0.000	0
20081224 09:20	3.1	3.1	3.1	88	1.3	0	2	247	0.00	1032.648	24	0.000	0
20081224 09:25	3.1	3.1	3.1	88	1.3	0	3	247	0.00	1032.682	23	0.000	0
20081224 09:30	3.0	3.0	3.0	88	1.2	0	3	247	0.00	1032.750	29	0.000	0
20081224 09:35	2.9	2.9	2.9	88	1.2	0	3	247	0.00	1032.750	34	0.000	0
20081224 09:40	2.9	2.9	2.9	89	1.3	0	3	247	0.00	1032.885	37	0.000	0
20081224 09:45	3.0	3.0	3.0	89	1.4	0	2	247	0.00	1032.919	46	0.000	0
20081224 09:50	2.9	2.9	2.9	88	1.2	0	3	247	0.00	1032.581	55	0.000	0
20081224 09:55	2.9	2.9	2.9	88	1.2	2	5	247	0.00	1032.445	60	0.000	0
20081224 10:00	3.1	3.1	3.1	88	1.3	2	5	247	0.00	1032.682	61	0.020	0
20081224 10:05	3.2	3.2	3.2	88	1.4	2	5	247	0.00	1032.682	66	0.000	0
20081224 10:10	3.3	3.3	3.3	88	1.5	2	5	247	0.00	1032.648	76	0.000	0
20081224 10:15	3.4	3.4	3.4	87	1.5	2	6	247	0.00	1032.344	89	0.000	0
20081224 10:20	3.6	3.6	3.6	86	1.4	3	6	247	0.00	1032.276	111	0.000	0
20081224 10:25	3.7	3.7	3.7	87	1.8	2	5	247	0.00	1032.106	123	0.000	0
20081224 10:30	3.8	3.8	3.8	86	1.7	3	8	247	0.00	1032.005	125	0.000	0
20081224 10:35	4.0	4.0	4.0	86	1.9	2	8	247	0.00	1032.039	119	0.000	0
20081224 10:40	4.1	4.1	4.1	86	1.9	3	11	225	0.00	1032.140	103	0.000	0
20081224 10:45	4.1	4.1	4.1	86	2.0	3	10	247	0.00	1032.106	98	0.000	0
20081224 10:50	4.2	4.2	4.2	85	1.9	3	8	247	0.00	1032.276	66	0.000	0
20081224 10:55	4.1	4.1	4.1	85	1.8	3	10	225	0.00	1032.174	43	0.000	0
20081224 11:00	4.1	4.1	4.1	85	1.8	3	10	270	0.00	1032.174	46	0.020	0
20081224 11:05	4.1	4.1	4.1	85	1.8	3	8	247	0.00	1032.039	75	0.000	0
20081224 11:10	4.1	4.1	4.1	84	1.6	3	8	247	0.00	1031.835	101	0.000	0
20081224 11:15	4.2	4.2	4.2	85	1.9	3	10	247	0.00	1031.835	118	0.000	1
20081224 11:20	4.3	4.3	4.3	84	1.9	3	8	225	0.00	1031.835	202	0.000	1
20081224 11:25	4.6	4.6	4.6	83	2.0	3	10	225	0.00	1032.039	287	0.000	1
20081224 11:30	4.9	4.9	4.9	82	2.1	3	11	247	0.00	1031.768	245	0.000	1
20081224 11:35	4.9	4.9	4.9	81	2.0	5	10	247	0.00	1031.903	139	0.000	1
20081224 11:40	4.8	4.8	4.8	81	1.9	3	10	247	0.00	1031.768	122	0.000	0
20081224 11:45	4.8	4.8	4.8	81	1.8	3	8	247	0.00	1031.768	161	0.000	1
20081224 11:50	4.8	4.8	4.8	82	2.0	2	6	270	0.00	1031.666	189	0.000	1
20081224 11:55	5.0	5.0	5.0	82	2.2	3	6	270	0.00	1031.429	187	0.000	1
20081224 12:00	5.2	5.2	5.2	81	2.2	3	8	247	0.00	1031.124	158	0.060	1
20081224 12:05	5.2	5.2	5.2	81	2.2	5	11	225	0.00	1030.921	227	0.000	1
20081224 12:10	5.4	5.4	5.4	80	2.2	5	10	247	0.00	1030.820	148	0.000	1
20081224 12:15	5.4	5.4	5.4	80	2.3	5	14	247	0.00	1030.650	231	0.000	1
20081224 12:20	5.6	5.6	5.6	79	2.2	3	14	247	0.00	1030.447	227	0.000	1
20081224 12:25	5.7	5.7	5.7	79	2.4	3	10	225	0.00	1030.278	210	0.000	1
20081224 12:30	5.8	4.5	5.8	78	2.2	6	10	247	0.00	1030.075	266	0.000	1
20081224 12:35	6.1	6.1	6.1	78	2.5	5	11	247	0.00	1030.007	374	0.000	1
20081224 12:40	6.4	6.4	6.4	76	2.5	5	11	247	0.00	1029.770	365	0.000	1
20081224 12:45	6.3	6.3	6.3	76	2.4	5	11	247	0.00	1029.668	241	0.000	1
20081224 12:50	6.3	6.3	6.3	76	2.4	5	14	247	0.00	1029.296	142	0.000	1
20081224 12:55	6.2	6.2	6.2	76	2.3	3	10	225	0.00	1029.160	120	0.000	1
20081224 13:00	6.3	6.3	6.3	77	2.5	3	11	270	0.00	1029.126	228	0.080	1
20081224 13:05	6.3	6.3	6.3	76	2.4	5	11	247	0.00	1029.126	204	0.000	0
20081224 13:10	6.2	5.0	6.2	76	2.3	6	11	247	0.00	1028.889	211	0.000	1
20081224 13:15	6.1	6.1	6.1	77	2.4	5	14	247	0.00	1028.686	101	0.000	1
20081224 13:20	6.0	6.0	6.0	77	2.3	3	8	247	0.00	1028.720	99	0.000	1
20081224 13:25	5.9	5.9	5.9	78	2.4	5	10	247	0.00	1028.652	161	0.000	1
20081224 13:30	6.3	5.1	6.3	77	2.5	6	16	270	0.00	1028.720	327	0.000	0
20081224 13:35	6.4	5.3	6.4	77	2.7	6	11	270	0.00	1028.381	242	0.000	0
20081224 13:40	6.6	6.6	6.6	76	2.6	5	10	247	0.00	1028.077	220	0.000	0
20081224 13:45	6.6	6.6	6.6	76	2.6	5	11	247	0.00	1027.806	264	0.000	0
20081224 13:50	6.5	5.3	6.5	76	2.6	6	14	225	0.00	1027.738	204	0.000	0
20081224 13:55	6.2	4.9	6.2	77	2.4	6	18	247	0.00	1027.636	114	0.000	0
20081224 14:00	5.9	4.6	5.9	77	2.2	6	14	247	0.00	1027.501	176	0.080	0
20081224 14:05	5.9	4.2	5.9	77	2.2	8	24	247	0.00	1027.399	212	0.000	0
20081224 14:10	5.8	4.6	5.8	78	2.3	6	18	247	0.00	1027.162	196	0.000	0
20081224 14:15	5.8	4.6	5.8	78	2.3	6	16	247	0.00	1027.095	207	0.000	0
20081224 14:20	5.7	4.4	5.7	78	2.2	6	16	247	0.00	1027.095	146	0.000	0
20081224 14:25	5.7	3.9	5.7	78	2.1	8	14	247	0.00	1027.027	108	0.000	0
20081224 14:30	5.6	4.2	5.6	79	2.2	6	16	225	0.00	1027.061	92	0.000	0
20081224 14:35	5.6	5.6	5.6	79	2.3	5	10	247	0.00	1026.959	77	0.000	0
20081224 14:40	5.7	5.7	5.7	78	2.1	5	10	247	0.00	1026.925	58	0.000	0
20081224 14:45	5.7	5.7	5.7	78	2.1	3	8	247	0.00	1026.824	53	0.000	0
20081224 14:50	5.6	5.6	5.6	79	2.3	5	10	247	0.00	1026.620	64	0.000	0
20081224 14:55	5.7	5.7	5.7	79	2.3	5	10	247	0.00	1026.688	55	0.000	0
20081224 15:00	5.7	5.7	5.7	78	2.2	5	8	247	0.00	1026.587	62	0.040	0
20081224 15:05	5.7	5.7	5.7	78	2.2	5	10	292	0.00	1026.451	84	0.000	0
20081224 15:10	5.8	5.8	5.8	78	2.3	5	10	270	0.00	1026.282	78	0.000	0
20081224 15:15	5.8	5.8	5.8	78	2.3	3	6	247	0.00	1026.316	61	0.000	0
20081224 15:20	5.7	5.7	5.7	78	2.2	5	13	247	0.00	1026.180	54	0.000	0
20081224 15:25	5.7	5.7	5.7	78	2.1	3	10	247	0.00	1026.113	52	0.000	0
20081224 15:30	5.6	5.6	5.6	78	2.1	5	8	247	0.00	1025.977	43	0.000	0
20081224 15:35	5.5	5.5	5.5	79	2.2	3	10	247	0.00	1025.943	32	0.000	0
20081224 15:40	5.4	5.4	5.4	79	2.1	5	10	292	0.00	1026.079	27	0.000	0
20081224 15:45	5.4	4.0	5.4	81	2.4	6	11	292	0.00	1026.045	26	0.000	0
20081224 15:50	5.2	5.2	5.2	81	2.2	5	10	292	0.00	1025.842	26	0.000	0
20081224 15:55	5.1	5.1	5.1	82	2.3	5	11	292	0.00	1025.909	21	0.000	0
20081224 16:00	5.0	3.6	5.0	83	2.4	6	11	315	0.00	1026.180	19	0.000	0
20081224 16:05	4.8	2.5	4.8	84	2.3	10	16	315	0.00	1026.350	19	0.020	0
20081224 16:10	4.6	1.9	4.6	84	2.1	11	19	292	0.00	1026.248	14	0.000	0
20081224 16:15	4.3	1.6	4.3	84	1.9	11	18	292	0.00	1026.282	10	0.000	0
20081224 16:20	4.2	2.2	4.2	85	1.9	8	18	315	0.00	1026.316	6	0.000	0
20081224 16:25	4.1	2.0	4.1	85	1.8	8	14	292	0.00	1026.519	1	0.000	0
20081224 16:30	3.9	2.3	3.9	85	1.6	6	16	292	0.00	1026.417	0	0.000	0
20081224 16:35	3.8	1.7	3.8	86	1.7	8	16	315	0.00	1026.688	0	0.000	0
20081224 16:40	3.7	3.7	3.7	87	1.7	5	14	315	0.00	1026.790	0	0.000	0
20081224 16:45	3.5	3.5	3.5	87	1.5	5	8	315	0.00	1027.061	0	0.000	0
20081224 16:50	3.3	3.3	3.3	88	1.5	5	10	315	0.00	1027.230	0	0.000	0
20081224 16:55	3.2	0.6	3.2	88	1.4	10	19	315	0.00	1027.128	0	0.000	0
20081224 17:00	3.1	0.4	3.1	89	1.4	10	18	315	0.00	1027.399	0	0.000	0
20081224 17:05	2.9	-0.1	2.9	89	1.3	11	21	315	0.00	1027.603	0	0.000	0
20081224 17:10	2.8	0.5	2.8	89	1.1	8	18	292	0.00	1027.704	0	0.000	0
20081224 17:15	2.7	0.5	2.7	90	1.2	8	18	292	0.00	1027.704	0	0.000	0
20081224 17:20	2.7	0.4	2.7	90	1.2	8	16	270	0.00	1027.704	0	0.000	0
20081224 17:25	2.6	0.3	2.6	90	1.1	8	18	292	0.00	1027.704	0	0.000	0
20081224 17:30	2.6	0.8	2.6	90	1.1	6	11	270	0.00	1027.636	0	0.000	0
20081224 17:35	2.6	0.8	2.6	90	1.1	6	14	247	0.00	1027.806	0	0.000	0
20081224 17:40	2.6	2.6	2.6	90	1.1	5	10	270	0.00	1027.840	0	0.000	0
20081224 17:45	2.6	2.6	2.6	90	1.1	5	10	270	0.00	1027.704	0	0.000	0
20081224 17:50	2.6	2.6	2.6	90	1.1	3	8	270	0.00	1027.772	0	0.000	0
20081224 17:55	2.6	2.6	2.6	90	1.1	5	10	247	0.00	1027.704	0	0.000	0
20081224 18:00	2.6	2.6	2.6	90	1.1	3	10	247	0.00	1027.704	0	0.000	0
20081224 18:05	2.6	2.6	2.6	90	1.1	5	10	247	0.00	1027.603	0	0.000	0
20081224 18:10	2.5	2.5	2.5	90	1.0	3	11	270	0.00	1027.772	0	0.000	0
20081224 18:15	2.5	2.5	2.5	90	1.0	3	11	270	0.00	1027.704	0	0.000	0
20081224 18:20	2.5	2.5	2.5	90	1.0	3	8	202	0.00	1027.603	0	0.000	0
20081224 18:25	2.6	2.6	2.6	91	1.2	3	8	247	0.00	1027.501	0	0.000	0
20081224 18:30	2.6	2.6	2.6	91	1.3	3	8	247	0.00	1027.704	0	0.000	0
20081224 18:35	2.7	2.7	2.7	91	1.3	2	8	225	0.00	1027.636	0	0.000	0
20081224 18:40	2.7	2.7	2.7	91	1.4	3	6	225	0.00	1027.670	0	0.000	0
20081224 18:45	2.8	2.8	2.8	90	1.3	3	6	225	0.00	1027.670	0	0.000	0
20081224 18:50	2.8	2.8	2.8	90	1.4	3	8	225	0.00	1027.670	0	0.000	0
20081224 18:55	2.8	2.8	2.8	90	1.4	3	8	247	0.00	1027.535	0	0.000	0
20081224 19:00	2.8	2.8	2.8	90	1.4	5	10	247	0.00	1027.535	0	0.000	0
20081224 19:05	2.8	2.8	2.8	90	1.4	3	8	247	0.00	1027.467	0	0.000	0
20081224 19:10	2.8	2.8	2.8	90	1.4	3	11	270	0.00	1027.433	0	0.000	0
20081224 19:15	2.8	2.8	2.8	90	1.4	5	14	247	0.00	1027.196	0	0.000	0
20081224 19:20	2.8	1.0	2.8	90	1.3	6	16	247	0.00	1027.332	0	0.000	0
20081224 19:25	2.8	1.0	2.8	90	1.3	6	14	247	0.00	1027.467	0	0.000	0
20081224 19:30	2.8	1.0	2.8	90	1.3	6	11	247	0.00	1027.603	0	0.000	0
20081224 19:35	2.7	2.7	2.7	90	1.2	5	14	247	0.00	1027.535	0	0.000	0
20081224 19:40	2.7	2.7	2.7	91	1.3	5	11	225	0.00	1027.569	0	0.000	0
20081224 19:45	2.7	2.7	2.7	91	1.3	5	8	270	0.00	1027.535	0	0.000	0
20081224 19:50	2.7	0.9	2.7	91	1.3	6	10	247	0.00	1027.332	0	0.000	0
20081224 19:55	2.7	2.7	2.7	91	1.3	5	10	247	0.00	1027.298	0	0.000	0
20081224 20:00	2.7	2.7	2.7	91	1.3	5	11	247	0.00	1027.399	0	0.000	0
20081224 20:05	2.7	0.9	2.7	91	1.3	6	14	247	0.00	1027.365	0	0.000	0
20081224 20:10	2.7	0.9	2.7	91	1.3	6	16	247	0.00	1027.467	0	0.000	0
20081224 20:15	2.7	0.9	2.7	91	1.3	6	16	247	0.00	1027.433	0	0.000	0
20081224 20:20	2.7	2.7	2.7	91	1.3	5	11	247	0.00	1027.467	0	0.000	0
20081224 20:25	2.7	2.7	2.7	91	1.3	5	10	247	0.00	1027.128	0	0.000	0
20081224 20:30	2.7	2.7	2.7	91	1.3	5	11	270	0.00	1027.196	0	0.000	0
20081224 20:35	2.7	2.7	2.7	90	1.2	5	11	270	0.00	1027.162	0	0.000	0
20081224 20:40	2.7	2.7	2.7	91	1.3	5	10	270	0.00	1027.061	0	0.000	0
20081224 20:45	2.7	2.7	2.7	91	1.3	5	11	270	0.00	1026.993	0	0.000	0
20081224 20:50	2.6	0.8	2.6	91	1.3	6	10	270	0.00	1026.891	0	0.000	0
20081224 20:55	2.6	0.8	2.6	91	1.3	6	11	247	0.00	1026.925	0	0.000	0
20081224 21:00	2.6	0.8	2.6	91	1.2	6	13	247	0.00	1026.790	0	0.000	0
20081224 21:05	2.6	2.6	2.6	91	1.2	5	10	247	0.00	1026.688	0	0.000	0
20081224 21:10	2.5	0.7	2.5	91	1.2	6	14	247	0.00	1026.553	0	0.000	0
20081224 21:15	2.4	0.6	2.4	91	1.1	6	14	247	0.00	1026.519	0	0.000	0
20081224 21:20	2.4	0.1	2.4	91	1.1	8	14	270	0.00	1026.350	0	0.000	0
20081224 21:25	2.4	-0.4	2.4	91	1.1	10	21	247	0.20	1026.248	0	0.000	0
20081224 21:30	2.3	0.0	2.3	91	1.0	8	16	247	0.00	1026.079	0	0.000	0
20081224 21:35	2.3	0.5	2.3	91	1.0	6	16	247	0.00	1026.180	0	0.000	0
20081224 21:40	2.3	-0.1	2.3	91	1.0	8	16	247	0.00	1026.079	0	0.000	0
20081224 21:45	2.2	-0.1	2.2	91	0.9	8	16	247	0.00	1026.011	0	0.000	0
20081224 21:50	2.2	0.4	2.2	91	0.9	6	11	247	0.00	1026.045	0	0.000	0
20081224 21:55	2.2	2.2	2.2	91	0.9	5	13	270	0.00	1026.079	0	0.000	0
20081224 22:00	2.2	0.4	2.2	91	0.9	6	16	247	0.00	1026.079	0	0.000	0
20081224 22:05	2.2	0.4	2.2	92	1.1	6	11	247	0.00	1026.113	0	0.000	0
20081224 22:10	2.2	2.2	2.2	91	0.9	5	14	270	0.00	1026.079	0	0.000	0
20081224 22:15	2.2	-0.1	2.2	91	0.9	8	14	247	0.00	1026.113	0	0.000	0
20081224 22:20	2.2	0.4	2.2	91	0.9	6	10	270	0.00	1026.146	0	0.000	0
20081224 22:25	2.2	-0.1	2.2	91	0.9	8	16	270	0.00	1026.180	0	0.000	0
20081224 22:30	2.2	0.4	2.2	91	0.9	6	11	270	0.00	1026.113	0	0.000	0
20081224 22:35	2.3	-0.1	2.3	91	1.0	8	16	270	0.00	1026.045	0	0.000	0
20081224 22:40	2.2	-0.6	2.2	91	0.9	10	16	270	0.00	1026.079	0	0.000	0
20081224 22:45	2.2	-0.6	2.2	91	0.9	10	18	270	0.00	1026.113	0	0.000	0
20081224 22:50	2.2	0.3	2.2	91	0.9	6	16	270	0.00	1026.146	0	0.000	0
20081224 22:55	2.2	-0.2	2.2	92	1.0	8	16	270	0.00	1026.180	0	0.000	0
20081224 23:00	2.1	-0.7	2.1	92	0.9	10	14	270	0.00	1026.146	0	0.000	0
20081224 23:05	2.2	-0.6	2.2	92	1.0	10	19	270	0.00	1026.079	0	0.000	0
20081224 23:10	2.1	-0.7	2.1	92	0.9	10	18	270	0.00	1026.146	0	0.000	0
20081224 23:15	2.1	-0.8	2.1	92	0.9	10	18	270	0.00	1026.113	0	0.000	0
20081224 23:20	2.1	-0.3	2.1	92	0.9	8	18	270	0.20	1026.113	0	0.000	0
20081224 23:25	2.1	-0.8	2.1	92	0.9	10	16	270	0.00	1026.113	0	0.000	0
20081224 23:30	2.1	-1.1	2.1	92	0.9	11	18	270	0.00	1025.977	0	0.000	0
20081224 23:35	2.1	-0.3	2.1	92	0.9	8	14	270	0.00	1026.045	0	0.000	0
20081224 23:40	2.1	0.3	2.1	92	0.9	6	14	270	0.00	1025.909	0	0.000	0
20081224 23:45	2.1	-0.3	2.1	92	0.9	8	16	270	0.00	1026.045	0	0.000	0
20081224 23:50	2.1	-0.3	2.1	92	0.9	8	16	292	0.00	1026.180	0	0.000	0
20081224 23:55	2.2	-0.2	2.2	92	1.0	8	18	270	0.00	1026.146	0	0.000	0
20081224 24:00	2.2	-0.2	2.2	92	1.0	8	16	292	0.00	1026.214	0	0.000	0



Please note the license to use and transfer of this data:
http://creativecommons.org/licenses/by-nc-sa/3.0/deed.en

Bitte beachten sie die Lizenz zur Verwertung und Weitergabe der Daten:
http://creativecommons.org/licenses/by-nc-sa/3.0/deed.de

zurück zur Übersicht der Archivdaten (Monats und Tagesdaten)

Cookies helfen bei der Bereitstellung von Inhalten. Durch die Nutzung dieser Seiten erklärst du dich damit einverstanden, dass Cookies auf deinem Rechner gespeichert werden. Weitere Information